createdAt,value
2023-04-13T00:01:33.157Z,93.00
2023-04-13T00:04:04.139Z,93.00
2023-04-13T00:06:31.901Z,93.00
2023-04-13T00:09:01.215Z,93.00
2023-04-13T00:11:29.761Z,93.00
2023-04-13T00:13:59.128Z,93.00
2023-04-13T00:16:29.188Z,93.00
2023-04-13T00:18:56.760Z,93.00
2023-04-13T00:21:26.053Z,92.90
2023-04-13T00:23:53.796Z,92.90
2023-04-13T00:26:22.296Z,92.90
2023-04-13T00:28:49.904Z,92.80
2023-04-13T00:31:17.502Z,92.80
2023-04-13T00:33:45.013Z,92.80
2023-04-13T00:36:12.616Z,92.70
2023-04-13T00:38:42.025Z,92.70
2023-04-13T00:41:13.320Z,92.70
2023-04-13T00:43:40.782Z,92.70
2023-04-13T00:46:09.573Z,92.70
2023-04-13T00:48:37.239Z,92.80
2023-04-13T00:51:05.880Z,92.80
2023-04-13T00:53:33.930Z,92.70
2023-04-13T00:56:04.242Z,92.70
2023-04-13T00:58:32.493Z,92.70
2023-04-13T01:01:00.010Z,92.70
2023-04-13T01:03:27.657Z,92.70
2023-04-13T01:06:22.969Z,92.60
2023-04-13T01:09:03.105Z,92.60
2023-04-13T01:11:42.848Z,92.60
2023-04-13T01:14:22.388Z,92.60
2023-04-13T01:16:57.858Z,92.60
2023-04-13T01:19:51.841Z,92.60
2023-04-13T01:22:22.794Z,92.60
2023-04-13T01:25:26.140Z,92.60
2023-04-13T01:28:12.840Z,92.50
2023-04-13T01:30:41.433Z,92.50
2023-04-13T01:33:10.658Z,92.50
2023-04-13T01:35:39.290Z,92.50
2023-04-13T01:38:07.816Z,92.50
2023-04-13T01:40:37.470Z,92.50
2023-04-13T01:43:04.990Z,92.50
2023-04-13T01:45:53.874Z,92.50
2023-04-13T01:48:30.173Z,92.40
2023-04-13T01:51:17.066Z,92.40
2023-04-13T01:53:51.372Z,92.40
2023-04-13T01:56:20.319Z,92.50
2023-04-13T01:58:50.449Z,92.40
2023-04-13T02:01:18.298Z,92.40
2023-04-13T02:03:46.362Z,92.40
2023-04-13T02:06:14.166Z,92.40
2023-04-13T02:08:42.306Z,92.40
2023-04-13T02:11:12.900Z,92.40
2023-04-13T02:13:40.418Z,92.40
2023-04-13T02:16:09.376Z,92.30
2023-04-13T02:18:37.487Z,92.40
2023-04-13T02:21:11.498Z,92.40
2023-04-13T02:23:41.543Z,92.30
2023-04-13T02:26:10.058Z,92.30
2023-04-13T02:28:37.613Z,92.20
2023-04-13T02:31:06.129Z,92.30
2023-04-13T02:33:34.663Z,92.30
2023-04-13T02:36:04.306Z,92.30
2023-04-13T02:38:32.353Z,92.30
2023-04-13T02:41:01.287Z,92.20
2023-04-13T02:43:31.985Z,92.20
2023-04-13T02:45:59.835Z,92.20
2023-04-13T02:48:27.478Z,92.20
2023-04-13T02:50:55.051Z,92.20
2023-04-13T02:53:22.605Z,92.10
2023-04-13T02:55:53.890Z,92.10
2023-04-13T02:58:21.575Z,92.10
2023-04-13T03:00:49.414Z,92.00
2023-04-13T03:03:17.343Z,92.00
2023-04-13T03:05:44.918Z,91.90
2023-04-13T03:08:12.491Z,91.90
2023-04-13T03:10:40.038Z,91.90
2023-04-13T03:13:07.832Z,91.90
2023-04-13T03:15:35.374Z,91.90
2023-04-13T03:18:04.404Z,91.80
2023-04-13T03:20:31.957Z,91.80
2023-04-13T03:22:59.574Z,91.80
2023-04-13T03:25:27.153Z,91.80
2023-04-13T03:27:54.692Z,91.80
2023-04-13T03:30:22.448Z,91.70
2023-04-13T03:32:50.127Z,91.80
2023-04-13T03:35:17.745Z,91.70
2023-04-13T03:37:45.198Z,91.70
2023-04-13T03:40:13.013Z,92.00
2023-04-13T03:42:40.644Z,91.60
2023-04-13T03:45:08.669Z,91.60
2023-04-13T03:47:36.337Z,91.60
2023-04-13T03:50:04.081Z,91.50
2023-04-13T03:52:32.260Z,91.60
2023-04-13T03:54:59.928Z,91.60
2023-04-13T03:57:27.731Z,91.60
2023-04-13T03:59:55.240Z,91.60
2023-04-13T04:02:22.913Z,91.50
2023-04-13T04:04:51.323Z,91.40
2023-04-13T04:07:23.283Z,91.50
2023-04-13T04:09:51.116Z,91.50
2023-04-13T04:12:18.699Z,91.50
2023-04-13T04:14:46.196Z,91.50
2023-04-13T04:17:13.657Z,91.40
2023-04-13T04:19:41.300Z,91.50
2023-04-13T04:22:09.488Z,91.40
2023-04-13T04:24:37.000Z,91.40
2023-04-13T04:27:06.140Z,91.50
2023-04-13T04:29:36.248Z,91.50
2023-04-13T04:32:05.878Z,91.50
2023-04-13T04:34:33.550Z,91.50
2023-04-13T04:37:10.905Z,91.50
2023-04-13T04:39:46.231Z,91.50
2023-04-13T04:42:14.765Z,91.50
2023-04-13T04:44:44.826Z,91.40
2023-04-13T04:47:17.171Z,91.40
2023-04-13T04:49:44.614Z,91.40
2023-04-13T04:52:12.793Z,91.40
2023-04-13T04:54:40.652Z,91.50
2023-04-13T04:57:10.751Z,91.50
2023-04-13T04:59:39.077Z,91.50
2023-04-13T05:02:08.348Z,91.40
2023-04-13T05:04:36.100Z,91.50
2023-04-13T05:07:03.575Z,91.50
2023-04-13T05:09:32.108Z,91.50
2023-04-13T05:11:59.559Z,91.50
2023-04-13T05:14:27.070Z,91.50
2023-04-13T05:16:54.785Z,91.50
2023-04-13T05:19:22.345Z,91.60
2023-04-13T05:21:49.938Z,91.50
2023-04-13T05:24:17.437Z,91.50
2023-04-13T05:26:45.135Z,91.60
2023-04-13T05:29:12.975Z,91.60
2023-04-13T05:31:40.770Z,91.50
2023-04-13T05:34:08.274Z,91.60
2023-04-13T05:36:35.796Z,91.60
2023-04-13T05:39:03.343Z,91.60
2023-04-13T05:41:31.127Z,91.60
2023-04-13T05:43:58.623Z,91.70
2023-04-13T05:46:26.492Z,91.80
2023-04-13T05:48:54.019Z,92.10
2023-04-13T05:51:21.847Z,92.10
2023-04-13T05:53:49.356Z,92.00
2023-04-13T05:56:16.958Z,91.90
2023-04-13T05:58:44.713Z,91.90
2023-04-13T06:01:13.020Z,92.20
2023-04-13T06:03:40.870Z,91.90
2023-04-13T06:06:09.018Z,91.90
2023-04-13T06:08:36.526Z,91.90
2023-04-13T06:11:04.166Z,91.90
2023-04-13T06:13:32.065Z,91.90
2023-04-13T06:16:00.072Z,91.90
2023-04-13T06:18:28.305Z,91.90
2023-04-13T06:20:57.446Z,91.90
2023-04-13T06:23:24.993Z,91.90
2023-04-13T06:25:52.561Z,92.00
2023-04-13T06:28:20.076Z,92.00
2023-04-13T06:30:47.730Z,92.10
2023-04-13T06:33:15.778Z,92.10
2023-04-13T06:35:43.385Z,92.20
2023-04-13T06:38:12.502Z,92.20
2023-04-13T06:40:40.250Z,92.20
2023-04-13T06:43:11.167Z,92.30
2023-04-13T06:45:43.657Z,92.30
2023-04-13T06:48:11.800Z,92.50
2023-04-13T06:50:39.463Z,92.50
2023-04-13T06:53:06.967Z,92.60
2023-04-13T06:55:34.560Z,92.70
2023-04-13T06:58:02.068Z,92.80
2023-04-13T07:00:30.587Z,92.90
2023-04-13T07:02:58.905Z,93.00
2023-04-13T07:05:26.900Z,93.10
2023-04-13T07:07:54.397Z,93.00
2023-04-13T07:10:21.938Z,92.90
2023-04-13T07:12:49.598Z,93.00
2023-04-13T07:15:17.149Z,93.00
2023-04-13T07:17:44.691Z,93.10
2023-04-13T07:20:12.749Z,93.10
2023-04-13T07:22:40.403Z,93.20
2023-04-13T07:25:08.698Z,93.10
2023-04-13T07:27:36.332Z,93.00
2023-04-13T07:30:04.080Z,93.10
2023-04-13T07:32:31.815Z,93.10
2023-04-13T07:35:02.175Z,93.20
2023-04-13T07:37:30.027Z,93.10
2023-04-13T07:39:57.780Z,93.00
2023-04-13T07:42:25.686Z,93.10
2023-04-13T07:44:58.939Z,93.10
2023-04-13T07:47:26.484Z,93.20
2023-04-13T07:49:54.523Z,93.20
2023-04-13T07:52:22.231Z,93.20
2023-04-13T07:54:50.010Z,93.20
2023-04-13T07:57:21.639Z,93.20
2023-04-13T07:59:49.588Z,93.30
2023-04-13T08:02:18.435Z,93.30
2023-04-13T08:04:46.391Z,93.30
2023-04-13T08:07:14.020Z,93.30
2023-04-13T08:09:42.754Z,93.40
2023-04-13T08:12:10.597Z,93.40
2023-04-13T08:14:38.181Z,93.40
2023-04-13T08:17:06.362Z,93.40
2023-04-13T08:19:34.234Z,93.50
2023-04-13T08:22:02.275Z,93.50
2023-04-13T08:24:29.828Z,93.60
2023-04-13T08:27:00.851Z,93.40
2023-04-13T08:29:29.130Z,93.70
2023-04-13T08:31:58.345Z,93.50
2023-04-13T08:34:26.280Z,93.50
2023-04-13T08:36:55.431Z,93.60
2023-04-13T08:39:23.672Z,93.50
2023-04-13T08:41:51.290Z,93.60
2023-04-13T08:44:18.859Z,93.70
2023-04-13T08:46:47.343Z,93.60
2023-04-13T08:49:14.992Z,93.80
2023-04-13T08:51:44.540Z,93.80
2023-04-13T08:54:14.383Z,93.80
2023-04-13T08:56:46.913Z,93.80
2023-04-13T08:59:16.383Z,93.80
2023-04-13T09:02:24.652Z,93.80
2023-04-13T09:05:00.941Z,94.00
2023-04-13T09:07:34.998Z,93.80
2023-04-13T09:10:06.116Z,93.90
2023-04-13T09:12:35.184Z,94.00
2023-04-13T09:15:05.795Z,94.00
2023-04-13T09:17:34.405Z,94.00
2023-04-13T09:20:21.731Z,94.00
2023-04-13T09:22:52.913Z,94.20
2023-04-13T09:25:25.738Z,94.20
2023-04-13T09:27:53.763Z,94.20
2023-04-13T09:30:25.749Z,94.30
2023-04-13T09:33:10.766Z,94.10
2023-04-13T09:35:39.143Z,94.30
2023-04-13T09:38:07.590Z,94.20
2023-04-13T09:40:38.512Z,94.20
2023-04-13T09:43:08.256Z,94.60
2023-04-13T09:45:40.987Z,94.30
2023-04-13T09:48:20.809Z,94.30
2023-04-13T09:51:00.352Z,94.40
2023-04-13T09:53:31.377Z,94.40
2023-04-13T09:55:59.987Z,94.50
2023-04-13T09:58:28.621Z,94.40
2023-04-13T10:00:56.924Z,94.80
2023-04-13T10:03:24.503Z,94.80
2023-04-13T10:05:59.534Z,95.00
2023-04-13T10:08:37.318Z,95.20
2023-04-13T10:11:08.954Z,95.10
2023-04-13T10:13:52.531Z,95.40
2023-04-13T10:16:47.204Z,95.20
2023-04-13T10:19:20.875Z,95.50
2023-04-13T10:21:50.441Z,95.30
2023-04-13T10:24:20.452Z,95.40
2023-04-13T10:26:48.048Z,95.40
2023-04-13T10:29:16.991Z,95.50
2023-04-13T10:31:49.437Z,95.20
2023-04-13T10:34:28.693Z,95.40
2023-04-13T10:37:00.153Z,95.30
2023-04-13T10:39:30.479Z,95.40
2023-04-13T10:42:02.447Z,95.30
2023-04-13T10:44:48.184Z,95.10
2023-04-13T10:47:17.573Z,95.10
2023-04-13T10:49:49.101Z,95.10
2023-04-13T10:52:17.203Z,95.10
2023-04-13T10:54:45.560Z,95.00
2023-04-13T10:57:13.722Z,95.20
2023-04-13T10:59:59.581Z,95.20
2023-04-13T11:02:33.174Z,95.10
2023-04-13T11:05:01.547Z,95.00
2023-04-13T11:07:29.923Z,95.00
2023-04-13T11:10:03.996Z,95.00
2023-04-13T11:12:32.182Z,95.00
2023-04-13T11:15:00.395Z,95.00
2023-04-13T11:17:28.380Z,95.00
2023-04-13T11:19:57.574Z,95.10
2023-04-13T11:22:28.127Z,95.20
2023-04-13T11:25:08.300Z,95.30
2023-04-13T11:27:35.908Z,95.30
2023-04-13T11:30:09.702Z,95.30
2023-04-13T11:32:41.862Z,95.30
2023-04-13T11:35:11.083Z,95.50
2023-04-13T11:37:42.622Z,95.40
2023-04-13T11:40:15.102Z,95.40
2023-04-13T11:43:01.951Z,95.30
2023-04-13T11:45:30.449Z,95.20
2023-04-13T11:47:58.921Z,95.20
2023-04-13T11:50:27.212Z,95.10
2023-04-13T11:52:56.892Z,95.20
2023-04-13T11:55:26.339Z,95.20
2023-04-13T11:57:55.022Z,94.90
2023-04-13T12:00:26.519Z,94.90
2023-04-13T12:05:30.255Z,95.00
2023-04-13T12:08:00.011Z,94.90
2023-04-13T12:10:39.684Z,94.90
2023-04-13T12:16:01.654Z,95.10
2023-04-13T12:18:37.511Z,95.10
2023-04-13T12:21:06.089Z,95.00
2023-04-13T12:23:33.922Z,95.10
2023-04-13T12:26:32.195Z,95.00
2023-04-13T12:28:58.012Z,94.90
2023-04-13T12:31:25.732Z,94.80
2023-04-13T12:33:53.329Z,94.80
2023-04-13T12:36:21.019Z,94.70
2023-04-13T12:38:48.484Z,94.60
2023-04-13T12:41:16.034Z,94.40
2023-04-13T12:43:43.486Z,94.40
2023-04-13T12:46:11.048Z,94.40
2023-04-13T12:48:38.724Z,94.30
2023-04-13T12:51:06.641Z,94.20
2023-04-13T12:53:36.355Z,94.10
2023-04-13T12:56:04.233Z,94.00
2023-04-13T12:58:32.047Z,93.90
2023-04-13T13:00:59.538Z,93.80
2023-04-13T13:03:27.407Z,93.90
2023-04-13T13:05:54.988Z,94.00
2023-04-13T13:08:22.581Z,94.20
2023-04-13T13:10:50.119Z,94.40
2023-04-13T13:13:18.939Z,94.50
2023-04-13T13:15:46.584Z,94.60
2023-04-13T13:18:14.630Z,94.70
2023-04-13T13:20:42.140Z,94.60
2023-04-13T13:23:11.977Z,95.00
2023-04-13T13:25:44.070Z,94.90
2023-04-13T13:28:20.314Z,95.00
2023-04-13T13:30:47.789Z,95.10
2023-04-13T13:33:15.589Z,95.20
2023-04-13T13:35:43.161Z,95.10
2023-04-13T13:38:10.985Z,95.20
2023-04-13T13:40:38.478Z,95.30
2023-04-13T13:43:06.112Z,95.30
2023-04-13T13:45:33.642Z,95.20
2023-04-13T13:48:01.285Z,95.20
2023-04-13T13:50:28.854Z,95.20
2023-04-13T13:53:03.744Z,95.20
2023-04-13T13:55:32.587Z,95.10
2023-04-13T13:58:00.143Z,95.10
2023-04-13T14:00:27.849Z,95.20
2023-04-13T14:02:55.705Z,95.20
2023-04-13T14:05:23.543Z,95.40
2023-04-13T14:07:51.598Z,95.60
2023-04-13T14:10:19.212Z,95.40
2023-04-13T14:12:50.266Z,95.60
2023-04-13T14:15:19.099Z,95.60
2023-04-13T14:17:55.864Z,95.50
2023-04-13T14:20:35.665Z,95.70
2023-04-13T14:23:03.593Z,95.60
2023-04-13T14:25:31.567Z,95.60
2023-04-13T14:27:59.093Z,95.70
2023-04-13T14:30:28.097Z,95.70
2023-04-13T14:32:56.808Z,95.90
2023-04-13T14:35:25.069Z,95.70
2023-04-13T14:37:53.018Z,95.60
2023-04-13T14:40:23.562Z,95.60
2023-04-13T14:42:54.532Z,95.70
2023-04-13T14:45:22.401Z,95.50
2023-04-13T14:47:50.378Z,95.60
2023-04-13T14:50:18.357Z,95.40
2023-04-13T14:52:46.812Z,95.40
2023-04-13T14:55:15.871Z,95.30
2023-04-13T14:57:43.586Z,95.20
2023-04-13T15:00:22.420Z,95.20
2023-04-13T15:02:52.928Z,95.20
2023-04-13T15:05:21.366Z,95.20
2023-04-13T15:07:51.241Z,95.20
2023-04-13T15:10:19.462Z,95.20
2023-04-13T15:12:48.485Z,95.10
2023-04-13T15:15:16.137Z,95.10
2023-04-13T15:17:43.834Z,95.00
2023-04-13T15:20:12.307Z,95.00
2023-04-13T15:22:39.845Z,95.00
2023-04-13T15:25:07.807Z,95.00
2023-04-13T15:27:35.350Z,95.00
2023-04-13T15:30:04.307Z,94.90
2023-04-13T15:32:34.988Z,94.80
2023-04-13T15:35:02.924Z,94.70
2023-04-13T15:37:30.500Z,94.80
2023-04-13T15:39:58.143Z,94.80
2023-04-13T15:42:26.457Z,94.80
2023-04-13T15:44:55.417Z,94.90
2023-04-13T15:47:23.044Z,94.90
2023-04-13T15:49:50.715Z,94.80
2023-04-13T15:52:18.280Z,94.70
2023-04-13T15:54:46.171Z,94.70
2023-04-13T15:57:14.516Z,94.70
2023-04-13T15:59:42.422Z,94.70
2023-04-13T16:02:10.307Z,94.70
2023-04-13T16:04:38.026Z,94.60
2023-04-13T16:07:13.795Z,94.70
2023-04-13T16:09:44.653Z,94.60
2023-04-13T16:12:12.543Z,94.60
2023-04-13T16:14:45.366Z,94.60
2023-04-13T16:17:15.212Z,94.60
2023-04-13T16:19:47.057Z,94.60
2023-04-13T16:22:14.834Z,94.70
2023-04-13T16:24:42.283Z,94.30
2023-04-13T16:27:10.459Z,94.20
2023-04-13T16:29:38.010Z,94.10
2023-04-13T16:32:08.834Z,94.20
2023-04-13T16:34:36.327Z,94.30
2023-04-13T16:37:04.657Z,94.30
2023-04-13T16:39:32.396Z,94.20
2023-04-13T16:41:59.884Z,94.30
2023-04-13T16:44:27.388Z,94.20
2023-04-13T16:46:55.002Z,94.20
2023-04-13T16:49:22.595Z,94.20
2023-04-13T16:51:50.153Z,94.10
2023-04-13T16:54:18.447Z,94.20
2023-04-13T16:56:46.499Z,94.10
2023-04-13T16:59:14.018Z,94.10
2023-04-13T17:01:41.564Z,94.00
2023-04-13T17:04:09.267Z,94.00
2023-04-13T17:06:38.136Z,94.00
2023-04-13T17:09:06.378Z,93.80
2023-04-13T17:11:34.231Z,93.80
2023-04-13T17:14:01.996Z,93.80
2023-04-13T17:16:29.812Z,93.90
2023-04-13T17:18:57.856Z,93.80
2023-04-13T17:21:25.674Z,93.80
2023-04-13T17:23:53.208Z,93.80
2023-04-13T17:26:20.876Z,93.80
2023-04-13T17:28:48.408Z,93.80
2023-04-13T17:31:16.877Z,93.80
2023-04-13T17:33:45.416Z,93.80
2023-04-13T17:36:12.995Z,93.80
2023-04-13T17:38:40.677Z,93.90
2023-04-13T17:41:11.500Z,93.80
2023-04-13T17:43:40.653Z,93.80
2023-04-13T17:46:08.705Z,93.80
2023-04-13T17:48:36.361Z,93.90
2023-04-13T17:51:03.915Z,93.80
2023-04-13T17:53:31.522Z,93.80
2023-04-13T17:55:59.120Z,93.80
2023-04-13T17:58:26.913Z,93.70
2023-04-13T18:00:54.456Z,93.80
2023-04-13T18:03:22.176Z,93.70
2023-04-13T18:05:49.821Z,93.80
2023-04-13T18:08:17.516Z,93.80
2023-04-13T18:10:45.038Z,93.90
2023-04-13T18:13:12.842Z,93.80
2023-04-13T18:15:40.584Z,93.80
2023-04-13T18:18:08.258Z,93.80
2023-04-13T18:20:35.754Z,93.90
2023-04-13T18:23:03.233Z,93.80
2023-04-13T18:25:31.293Z,93.80
2023-04-13T18:27:58.786Z,93.80
2023-04-13T18:30:26.411Z,93.80
2023-04-13T18:32:54.963Z,93.80
2023-04-13T18:35:22.555Z,93.60
2023-04-13T18:37:50.200Z,93.60
2023-04-13T18:40:17.756Z,93.50
2023-04-13T18:42:47.742Z,93.60
2023-04-13T18:45:15.314Z,93.60
2023-04-13T18:47:43.674Z,93.50
2023-04-13T18:50:11.967Z,93.40
2023-04-13T18:52:39.584Z,93.60
2023-04-13T18:55:07.459Z,93.50
2023-04-13T18:57:35.048Z,93.40
2023-04-13T19:00:02.637Z,93.40
2023-04-13T19:02:30.470Z,93.30
2023-04-13T19:04:59.000Z,93.30
2023-04-13T19:07:28.008Z,93.30
2023-04-13T19:09:55.613Z,93.40
2023-04-13T19:12:23.764Z,93.40
2023-04-13T19:14:51.507Z,93.40
2023-04-13T19:17:21.204Z,93.40
2023-04-13T19:19:49.034Z,93.40
2023-04-13T19:22:16.616Z,93.40
2023-04-13T19:24:44.208Z,93.30
2023-04-13T19:27:11.977Z,93.40
2023-04-13T19:29:42.536Z,93.30
2023-04-13T19:32:12.764Z,93.30
2023-04-13T19:34:40.536Z,93.30
2023-04-13T19:37:08.202Z,93.20
2023-04-13T19:39:35.781Z,93.10
2023-04-13T19:42:03.377Z,93.20
2023-04-13T19:44:31.141Z,93.20
2023-04-13T19:46:58.705Z,93.10
2023-04-13T19:49:27.084Z,93.10
2023-04-13T19:51:54.820Z,93.10
2023-04-13T19:54:22.387Z,92.90
2023-04-13T19:56:49.919Z,93.00
2023-04-13T19:59:18.020Z,92.90
2023-04-13T20:01:46.621Z,93.30
2023-04-13T20:04:14.418Z,92.90
2023-04-13T20:06:41.984Z,92.80
2023-04-13T20:09:14.184Z,92.90
2023-04-13T20:11:42.112Z,92.80
2023-04-13T20:14:13.049Z,92.70
2023-04-13T20:16:40.904Z,92.70
2023-04-13T20:19:09.697Z,92.80
2023-04-13T20:21:38.246Z,92.60
2023-04-13T20:24:05.969Z,92.60
2023-04-13T20:26:33.690Z,92.70
2023-04-13T20:29:03.055Z,92.70
2023-04-13T20:31:32.001Z,92.70
2023-04-13T20:34:00.070Z,92.50
2023-04-13T20:36:27.976Z,92.50
2023-04-13T20:38:59.808Z,92.70
2023-04-13T20:41:30.120Z,92.60
2023-04-13T20:43:59.069Z,92.50
2023-04-13T20:46:34.583Z,92.50
2023-04-13T20:49:05.049Z,92.40
2023-04-13T20:51:33.815Z,92.30
2023-04-13T20:54:03.254Z,92.70
2023-04-13T20:56:31.145Z,92.30
2023-04-13T20:58:59.189Z,92.30
2023-04-13T21:01:26.745Z,92.30
2023-04-13T21:03:54.263Z,92.30
2023-04-13T21:06:23.040Z,92.40
2023-04-13T21:08:52.967Z,92.20
2023-04-13T21:11:21.568Z,92.30
2023-04-13T21:13:49.113Z,92.20
2023-04-13T21:16:16.678Z,92.10
2023-04-13T21:18:44.343Z,92.10
2023-04-13T21:21:12.256Z,92.10
2023-04-13T21:23:39.762Z,92.00
2023-04-13T21:26:07.653Z,92.20
2023-04-13T21:28:35.417Z,92.00
2023-04-13T21:31:02.931Z,92.00
2023-04-13T21:33:30.725Z,91.90
2023-04-13T21:36:50.951Z,92.20
2023-04-13T21:38:45.730Z,91.80
2023-04-13T21:41:17.017Z,91.90
2023-04-13T21:43:44.706Z,91.90
2023-04-13T21:46:13.579Z,91.90
2023-04-13T21:48:41.443Z,91.80
2023-04-13T21:51:10.160Z,91.90
2023-04-13T21:53:38.764Z,91.90
2023-04-13T21:56:06.724Z,91.90
2023-04-13T21:58:46.953Z,91.80
2023-04-13T22:01:15.200Z,91.70
2023-04-13T22:03:46.469Z,91.90
2023-04-13T22:06:14.837Z,91.80
2023-04-13T22:08:42.445Z,91.80
2023-04-13T22:11:10.209Z,91.70
2023-04-13T22:13:37.834Z,91.60
2023-04-13T22:16:05.670Z,91.70
2023-04-13T22:18:33.230Z,91.60
2023-04-13T22:21:01.105Z,91.50
2023-04-13T22:23:29.398Z,91.50
2023-04-13T22:26:03.843Z,91.70
2023-04-13T22:28:32.279Z,91.80
2023-04-13T22:31:07.302Z,91.60
2023-04-13T22:33:38.345Z,91.50
2023-04-13T22:36:06.999Z,91.40
2023-04-13T22:38:34.490Z,91.50
2023-04-13T22:41:07.122Z,91.60
2023-04-13T22:43:34.664Z,91.50
2023-04-13T22:46:02.455Z,91.60
2023-04-13T22:48:30.481Z,91.50
2023-04-13T22:51:01.111Z,91.50
2023-04-13T22:53:28.891Z,91.50
2023-04-13T22:55:56.555Z,91.30
2023-04-13T22:58:24.107Z,91.30
2023-04-13T23:00:51.592Z,91.40
2023-04-13T23:03:19.537Z,91.40
2023-04-13T23:05:47.180Z,91.30
2023-04-13T23:08:14.916Z,91.40
2023-04-13T23:10:42.509Z,91.30
2023-04-13T23:13:10.008Z,91.50
2023-04-13T23:15:37.566Z,91.30
2023-04-13T23:18:05.687Z,91.20
2023-04-13T23:20:33.618Z,91.20
2023-04-13T23:23:01.586Z,91.10
2023-04-13T23:25:29.260Z,91.10
2023-04-13T23:27:56.761Z,91.10
2023-04-13T23:30:24.307Z,91.40
2023-04-13T23:32:52.265Z,91.10
2023-04-13T23:35:19.792Z,91.10
2023-04-13T23:37:47.310Z,91.10
2023-04-13T23:40:14.915Z,91.10
2023-04-13T23:42:42.556Z,91.00
2023-04-13T23:45:10.572Z,91.00
2023-04-13T23:47:38.256Z,91.10
2023-04-13T23:50:06.416Z,91.00
2023-04-13T23:52:34.345Z,91.00
2023-04-13T23:55:01.949Z,90.90
2023-04-13T23:57:34.555Z,90.90
